Time;durP1;ratioP1;P1;durP2;ratioP2;P2;SDS_P1;SDS_P2;PMS_P1;PMS_P2;Temp;Humidity;BMP_temperature;BMP_pressure;BME280_temperature;BME280_humidity;BME280_pressure;Samples;Min_cycle;Max_cycle;Signal;HPM_P1;HPM_P2
2022/12/28 00:00:09;;;;;;;;;;;5.10;99.90;5.60;100615.00;;;;344911;28;82536;-94
2022/12/28 00:00:21;;;;;;;;;;;5.10;99.90;5.60;100622.00;;;;343014;28;88936;-94
2022/12/28 00:00:33;;;;;;;;;;;5.10;99.90;5.60;100622.00;;;;343281;28;82575;-93
2022/12/28 00:00:45;;;;;;;;;;;5.00;99.90;5.50;100619.00;;;;341822;28;87873;-93
2022/12/28 00:01:11;;;;;;;;;;;5.00;99.90;5.40;100618.00;;;;343586;28;82482;-94
2022/12/28 00:01:24;;;;;;;;;;;5.00;99.90;5.40;100617.00;;;;344337;28;88937;-93
2022/12/28 00:01:36;;;;;;;;;;;5.00;99.90;5.40;100625.00;;;;343566;28;82480;-94
2022/12/28 00:01:48;;;;;;;;;;;5.00;99.90;5.40;100626.00;;;;341793;28;89141;-94
2022/12/28 00:02:00;;;;;;;;;;;5.00;99.90;5.40;100621.00;;;;345046;28;82263;-94
2022/12/28 00:02:11;;;;;;;;;;;5.00;99.90;5.40;100619.00;;;;345866;28;88788;-94
2022/12/28 00:02:23;;;;;;;;;;;5.00;99.90;5.40;100625.00;;;;344696;28;82555;-94
2022/12/28 00:02:35;;;;;;;;;;;5.00;99.90;5.40;100630.00;;;;345494;28;87127;-94
2022/12/28 00:02:47;;;;;;;;;;;5.00;99.90;5.40;100624.00;;;;345613;28;83325;-93
2022/12/28 00:02:59;;;;;;;;;;;5.00;99.90;5.40;100625.00;;;;343280;28;87946;-94
2022/12/28 00:03:11;;;;;;;;;;;5.00;99.90;5.40;100624.00;;;;344978;28;82445;-94
2022/12/28 00:03:22;;;;;;;;;;;5.00;99.90;5.40;100624.00;;;;345636;28;88093;-93
2022/12/28 00:03:34;;;;;;;;;;;5.00;99.90;5.40;100617.00;;;;346303;28;83450;-94
2022/12/28 00:03:46;;;;;;;;;;;5.00;99.90;5.40;100622.00;;;;345858;28;86570;-95
2022/12/28 00:03:59;;;;;;;;;;;5.00;99.90;5.40;100620.00;;;;344911;28;82338;-94
2022/12/28 00:04:12;;;;;;;;;;;5.00;99.90;5.40;100619.00;;;;344469;28;88349;-94
2022/12/28 00:04:24;;;;;;;;;;;5.00;99.90;5.40;100624.00;;;;343639;28;82379;-94
2022/12/28 00:04:36;;;;;;;;;;;5.00;99.90;5.40;100619.00;;;;343158;28;88574;-94
2022/12/28 00:04:47;;;;;;;;;;;5.00;99.90;5.40;100626.00;;;;343533;28;83477;-94
2022/12/28 00:04:59;;;;;;;;;;;5.00;99.90;5.40;100620.00;;;;343210;28;87852;-93
2022/12/28 00:05:11;;;;;;;;;;;5.00;99.90;5.30;100625.00;;;;344735;28;82610;-94
2022/12/28 00:05:23;;;;;;;;;;;5.00;99.90;5.40;100619.00;;;;344390;28;88904;-94
2022/12/28 00:05:35;;;;;;;;;;;5.00;99.90;5.40;100620.00;;;;347711;28;82332;-94
2022/12/28 00:05:46;;;;;;;;;;;5.00;99.90;5.40;100624.00;;;;345887;28;87844;-94
2022/12/28 00:05:58;;;;;;;;;;;5.00;99.90;5.40;100629.00;;;;346284;28;83172;-94
2022/12/28 00:06:10;;;;;;;;;;;5.00;99.90;5.40;100629.00;;;;344085;28;87229;-95
2022/12/28 00:06:22;;;;;;;;;;;5.00;99.90;5.40;100625.00;;;;344560;28;82579;-93
2022/12/28 00:06:35;;;;;;;;;;;5.00;99.90;5.40;100625.00;;;;345532;28;88549;-95
2022/12/28 00:06:49;;;;;;;;;;;5.00;99.90;5.40;100621.00;;;;344856;28;82494;-94
2022/12/28 00:07:01;;;;;;;;;;;5.00;99.90;5.30;100627.00;;;;344335;28;89988;-94
2022/12/28 00:07:13;;;;;;;;;;;5.00;99.90;5.30;100615.00;;;;345404;28;82495;-94
2022/12/28 00:07:25;;;;;;;;;;;5.00;99.90;5.30;100628.00;;;;344229;28;88287;-94
2022/12/28 00:07:37;;;;;;;;;;;4.90;99.90;5.30;100625.00;;;;346933;28;83280;-94
2022/12/28 00:07:49;;;;;;;;;;;5.00;99.90;5.40;100624.00;;;;343681;28;87211;-93
2022/12/28 00:08:01;;;;;;;;;;;4.90;99.90;5.30;100635.00;;;;346718;28;83471;-92
2022/12/28 00:08:13;;;;;;;;;;;5.00;99.90;5.30;100628.00;;;;346020;28;89429;-94
2022/12/28 00:08:24;;;;;;;;;;;4.90;99.90;5.40;100629.00;;;;343966;28;82363;-95
2022/12/28 00:08:36;;;;;;;;;;;4.90;99.90;5.40;100624.00;;;;343673;28;87053;-94
2022/12/28 00:08:53;;;;;;;;;;;4.90;99.90;5.30;100633.00;;;;345493;28;82489;-94
2022/12/28 00:09:05;;;;;;;;;;;4.90;99.90;5.30;100629.00;;;;346344;28;88494;-94
2022/12/28 00:09:17;;;;;;;;;;;4.90;99.90;5.30;100629.00;;;;346510;28;82382;-95
2022/12/28 00:09:29;;;;;;;;;;;4.90;99.90;5.30;100629.00;;;;343388;28;88948;-93
2022/12/28 00:09:41;;;;;;;;;;;4.90;99.90;5.30;100635.00;;;;346611;28;82414;-93
2022/12/28 00:09:53;;;;;;;;;;;4.90;99.90;5.30;100624.00;;;;344978;28;88890;-93
2022/12/28 00:10:05;;;;;;;;;;;4.90;99.90;5.30;100630.00;;;;343731;28;83354;-93
2022/12/28 00:10:17;;;;;;;;;;;4.90;99.90;5.40;100632.00;;;;344909;28;87657;-93
2022/12/28 00:10:49;;;;;;;;;;;4.90;99.90;5.40;100629.00;;;;345353;28;82585;-93
2022/12/28 00:11:21;;;;;;;;;;;4.90;99.90;5.50;100620.00;;;;344955;28;89294;-91
2022/12/28 00:11:40;;;;;;;;;;;5.00;99.90;5.40;100639.00;;;;346968;28;82270;-94
2022/12/28 00:11:52;;;;;;;;;;;4.90;99.90;5.40;100629.00;;;;346429;28;87981;-94
2022/12/28 00:12:04;;;;;;;;;;;4.90;99.90;5.40;100632.00;;;;347776;28;82561;-94
2022/12/28 00:12:16;;;;;;;;;;;4.90;99.90;5.40;100635.00;;;;343429;28;89256;-94
2022/12/28 00:12:28;;;;;;;;;;;4.90;99.90;5.40;100629.00;;;;347087;28;82465;-93
2022/12/28 00:12:40;;;;;;;;;;;4.90;99.90;5.40;100635.00;;;;347568;28;88482;-94
2022/12/28 00:12:52;;;;;;;;;;;4.90;99.90;5.40;100632.00;;;;346819;28;82494;-94
2022/12/28 00:13:04;;;;;;;;;;;4.90;99.90;5.40;100628.00;;;;343371;28;89843;-93
2022/12/28 00:13:15;;;;;;;;;;;4.90;99.90;5.50;100626.00;;;;346631;28;82417;-94
2022/12/28 00:13:30;;;;;;;;;;;4.90;99.90;5.40;100635.00;;;;345019;28;87709;-94
2022/12/28 00:13:42;;;;;;;;;;;4.90;99.90;5.40;100630.00;;;;345089;28;82551;-94
2022/12/28 00:13:55;;;;;;;;;;;4.90;99.90;5.40;100631.00;;;;343352;28;88345;-93
2022/12/28 00:14:07;;;;;;;;;;;4.90;99.90;5.40;100628.00;;;;346118;28;82623;-95
2022/12/28 00:14:18;;;;;;;;;;;4.90;99.90;5.40;100626.00;;;;343410;28;88966;-93
2022/12/28 00:14:30;;;;;;;;;;;4.90;99.90;5.40;100624.00;;;;344175;28;82551;-94
2022/12/28 00:14:42;;;;;;;;;;;4.90;99.90;5.40;100630.00;;;;344895;28;88238;-94
2022/12/28 00:14:57;;;;;;;;;;;4.90;99.90;5.30;100631.00;;;;346865;28;82484;-94
2022/12/28 00:15:09;;;;;;;;;;;4.90;99.90;5.30;100624.00;;;;345098;28;88094;-93
2022/12/28 00:15:21;;;;;;;;;;;4.90;99.90;5.30;100631.00;;;;342598;28;83464;-90
2022/12/28 00:15:32;;;;;;;;;;;4.90;99.90;5.40;100638.00;;;;342361;28;88328;-93
2022/12/28 00:15:44;;;;;;;;;;;4.90;99.90;5.40;100635.00;;;;345180;28;82503;-94
2022/12/28 00:15:57;;;;;;;;;;;4.90;99.90;5.40;100632.00;;;;343355;28;88058;-94
2022/12/28 00:16:30;;;;;;;;;;;4.90;99.90;5.40;100632.00;;;;343954;28;82459;-94
2022/12/28 00:16:41;;;;;;;;;;;4.90;99.90;5.40;100625.00;;;;342124;28;89427;-94
2022/12/28 00:16:53;;;;;;;;;;;4.90;99.90;5.50;100628.00;;;;342173;28;82612;-94
2022/12/28 00:17:05;;;;;;;;;;;4.90;99.90;5.50;100627.00;;;;341961;28;90990;-94
2022/12/28 00:17:17;;;;;;;;;;;4.90;99.90;5.60;100621.00;;;;345384;28;83124;-93
2022/12/28 00:17:29;;;;;;;;;;;4.90;99.90;5.60;100628.00;;;;346318;28;88439;-94
2022/12/28 00:17:41;;;;;;;;;;;4.90;99.90;5.60;100622.00;;;;343670;28;82694;-94
2022/12/28 00:17:53;;;;;;;;;;;4.90;99.90;5.60;100615.00;;;;341025;28;88296;-93
2022/12/28 00:18:04;;;;;;;;;;;4.90;99.90;5.60;100621.00;;;;342392;28;82391;-94
2022/12/28 00:18:16;;;;;;;;;;;5.00;99.90;5.60;100625.00;;;;343358;28;88787;-94
2022/12/28 00:18:28;;;;;;;;;;;4.90;99.90;5.70;100624.00;;;;342518;28;82334;-94
2022/12/28 00:18:40;;;;;;;;;;;5.00;99.90;5.70;100624.00;;;;341201;28;89365;-93
2022/12/28 00:18:53;;;;;;;;;;;5.00;99.90;5.60;100614.00;;;;344536;28;82395;-94
2022/12/28 00:19:06;;;;;;;;;;;5.00;99.90;5.60;100615.00;;;;345232;28;90134;-94
2022/12/28 00:19:18;;;;;;;;;;;5.00;99.90;5.70;100616.00;;;;345695;28;82431;-93
2022/12/28 00:19:30;;;;;;;;;;;5.00;99.90;5.70;100619.00;;;;347971;28;87965;-93
2022/12/28 00:19:42;;;;;;;;;;;5.00;99.90;5.60;100620.00;;;;342765;28;82550;-94
2022/12/28 00:19:54;;;;;;;;;;;5.00;99.90;5.60;100627.00;;;;346269;28;88342;-94
2022/12/28 00:20:06;;;;;;;;;;;5.00;99.90;5.60;100615.00;;;;344956;28;82494;-94
2022/12/28 00:20:18;;;;;;;;;;;5.00;99.90;5.60;100616.00;;;;345792;28;90876;-93
2022/12/28 00:20:30;;;;;;;;;;;5.00;99.90;5.70;100624.00;;;;347908;28;83290;-94
2022/12/28 00:20:41;;;;;;;;;;;5.00;99.90;5.80;100616.00;;;;343169;28;89366;-93
2022/12/28 00:20:57;;;;;;;;;;;5.00;99.90;5.70;100623.00;;;;343816;28;83559;-93
2022/12/28 00:21:08;;;;;;;;;;;5.00;99.90;5.70;100613.00;;;;344024;28;90217;-93
2022/12/28 00:21:20;;;;;;;;;;;5.10;99.90;5.60;100613.00;;;;345652;28;83450;-95
2022/12/28 00:21:32;;;;;;;;;;;5.10;99.90;5.70;100617.00;;;;345940;28;87198;-93
2022/12/28 00:21:44;;;;;;;;;;;5.00;99.90;5.80;100622.00;;;;346334;28;82476;-93
2022/12/28 00:21:56;;;;;;;;;;;5.10;99.90;5.70;100606.00;;;;347327;28;87911;-92
2022/12/28 00:22:08;;;;;;;;;;;5.10;99.90;5.60;100610.00;;;;346123;28;82341;-93
2022/12/28 00:22:20;;;;;;;;;;;5.10;99.90;5.60;100610.00;;;;344326;28;88082;-93
2022/12/28 00:22:32;;;;;;;;;;;5.10;99.90;5.60;100611.00;;;;343471;28;82409;-92
2022/12/28 00:22:43;;;;;;;;;;;5.10;99.90;5.70;100612.00;;;;343696;28;90343;-93
2022/12/28 00:22:56;;;;;;;;;;;5.10;99.90;5.80;100617.00;;;;342951;28;83615;-93
2022/12/28 00:23:08;;;;;;;;;;;5.10;99.90;5.80;100614.00;;;;346693;28;90458;-94
2022/12/28 00:23:20;;;;;;;;;;;5.10;99.90;5.80;100613.00;;;;346957;28;82422;-93
2022/12/28 00:23:31;;;;;;;;;;;5.10;99.90;5.80;100616.00;;;;343757;28;89491;-93
2022/12/28 00:23:43;;;;;;;;;;;5.10;99.90;5.70;100617.00;;;;344481;28;82474;-93
2022/12/28 00:23:56;;;;;;;;;;;5.10;99.90;5.70;100612.00;;;;345487;28;87926;-94
2022/12/28 00:24:26;;;;;;;;;;;5.10;99.90;5.70;100611.00;;;;345268;28;82577;-94
2022/12/28 00:24:38;;;;;;;;;;;5.10;99.90;5.60;100613.00;;;;342629;28;89664;-94
2022/12/28 00:24:50;;;;;;;;;;;5.10;99.90;5.60;100605.00;;;;344550;28;82557;-94
2022/12/28 00:25:02;;;;;;;;;;;5.10;99.90;5.60;100617.00;;;;343995;28;87924;-94
2022/12/28 00:25:14;;;;;;;;;;;5.10;99.90;5.70;100617.00;;;;347055;28;82668;-93
2022/12/28 00:25:26;;;;;;;;;;;5.10;99.90;5.70;100615.00;;;;344977;28;86562;-93
2022/12/28 00:25:37;;;;;;;;;;;5.10;99.90;5.80;100614.00;;;;346395;28;82543;-94
2022/12/28 00:25:49;;;;;;;;;;;5.10;99.90;5.70;100610.00;;;;345162;28;86593;-94
2022/12/28 00:26:12;;;;;;;;;;;5.10;99.90;5.70;100622.00;;;;344270;28;82438;-91
2022/12/28 00:26:25;;;;;;;;;;;5.10;99.90;5.70;100619.00;;;;345200;28;88630;-93
2022/12/28 00:26:37;;;;;;;;;;;5.10;99.90;5.90;100609.00;;;;347185;28;82466;-94
2022/12/28 00:26:49;;;;;;;;;;;5.10;99.90;5.80;100616.00;;;;347796;28;90631;-93
2022/12/28 00:27:01;;;;;;;;;;;5.10;99.90;5.90;100605.00;;;;348587;28;83296;-93
2022/12/28 00:27:12;;;;;;;;;;;5.10;99.90;5.90;100612.00;;;;346625;28;92058;-94
2022/12/28 00:27:24;;;;;;;;;;;5.10;99.90;5.90;100606.00;;;;348072;28;82479;-93
2022/12/28 00:27:36;;;;;;;;;;;5.20;99.90;5.90;100617.00;;;;344774;28;90214;-93
2022/12/28 00:27:48;;;;;;;;;;;5.20;99.90;5.90;100607.00;;;;345065;28;83526;-93
2022/12/28 00:27:59;;;;;;;;;;;5.20;99.90;5.90;100616.00;;;;344729;28;88311;-93
2022/12/28 00:28:11;;;;;;;;;;;5.20;99.90;5.90;100616.00;;;;345153;28;82619;-94
2022/12/28 00:28:23;;;;;;;;;;;5.20;99.90;5.90;100615.00;;;;343136;28;88333;-93
2022/12/28 00:28:35;;;;;;;;;;;5.20;99.90;5.90;100608.00;;;;344796;28;83605;-93
2022/12/28 00:28:47;;;;;;;;;;;5.20;99.90;5.80;100610.00;;;;344449;28;87123;-93
2022/12/28 00:28:59;;;;;;;;;;;5.20;99.90;5.70;100618.00;;;;344844;28;82292;-93
2022/12/28 00:29:16;;;;;;;;;;;5.20;99.90;5.70;100615.00;;;;342846;28;91152;-93
2022/12/28 00:29:28;;;;;;;;;;;5.20;99.90;5.60;100614.00;;;;345999;28;83582;-93
2022/12/28 00:29:40;;;;;;;;;;;5.20;99.90;5.70;100617.00;;;;345551;28;86591;-93
2022/12/28 00:29:52;;;;;;;;;;;5.20;99.90;5.60;100620.00;;;;344823;28;83172;-94
2022/12/28 00:30:04;;;;;;;;;;;5.20;99.90;5.60;100618.00;;;;344185;28;89555;-93
2022/12/28 00:30:16;;;;;;;;;;;5.20;99.90;5.70;100610.00;;;;344772;28;83502;-95
2022/12/28 00:30:27;;;;;;;;;;;5.20;99.90;5.80;100621.00;;;;345725;28;87928;-95
2022/12/28 00:30:39;;;;;;;;;;;5.20;99.90;5.70;100621.00;;;;344675;28;83261;-95
2022/12/28 00:30:51;;;;;;;;;;;5.20;99.90;5.60;100611.00;;;;345719;28;87210;-94
2022/12/28 00:31:03;;;;;;;;;;;5.20;99.90;5.60;100607.00;;;;346110;28;83536;-94
2022/12/28 00:31:15;;;;;;;;;;;5.20;99.90;5.60;100614.00;;;;344440;28;88890;-94
2022/12/28 00:31:27;;;;;;;;;;;5.20;99.90;5.60;100613.00;;;;346289;28;83433;-94
2022/12/28 00:31:39;;;;;;;;;;;5.20;99.90;5.50;100613.00;;;;343191;28;88033;-94
2022/12/28 00:31:51;;;;;;;;;;;5.20;99.90;5.60;100602.00;;;;345049;28;82136;-93
2022/12/28 00:32:04;;;;;;;;;;;5.10;99.90;5.60;100616.00;;;;344155;28;90572;-94
2022/12/28 00:32:15;;;;;;;;;;;5.10;99.90;5.70;100606.00;;;;343391;28;82526;-94
2022/12/28 00:32:28;;;;;;;;;;;5.10;99.90;5.60;100610.00;;;;344481;28;88345;-94
2022/12/28 00:32:40;;;;;;;;;;;5.10;99.90;5.70;100617.00;;;;346038;28;83467;-94
2022/12/28 00:32:52;;;;;;;;;;;5.10;99.90;5.70;100621.00;;;;345417;28;89689;-94
2022/12/28 00:33:04;;;;;;;;;;;5.10;99.90;5.80;100607.00;;;;346182;28;83466;-93
2022/12/28 00:33:16;;;;;;;;;;;5.10;99.90;5.80;100605.00;;;;344149;28;91282;-94
2022/12/28 00:33:28;;;;;;;;;;;5.10;99.90;5.80;100598.00;;;;343487;28;83582;-94
2022/12/28 00:33:40;;;;;;;;;;;5.10;99.90;5.90;100603.00;;;;344549;28;89450;-94
2022/12/28 00:33:51;;;;;;;;;;;5.10;99.90;5.80;100603.00;;;;344973;28;82385;-94
2022/12/28 00:34:03;;;;;;;;;;;5.10;99.90;5.80;100598.00;;;;341726;28;87507;-94
2022/12/28 00:34:15;;;;;;;;;;;5.10;99.90;5.90;100601.00;;;;344785;28;83490;-95
2022/12/28 00:34:27;;;;;;;;;;;5.20;99.90;5.70;100603.00;;;;344194;28;89759;-93
2022/12/28 00:34:39;;;;;;;;;;;5.20;99.90;5.70;100606.00;;;;343325;28;83576;-94
2022/12/28 00:34:50;;;;;;;;;;;5.10;99.90;5.60;100597.00;;;;341786;28;86389;-94
2022/12/28 00:35:03;;;;;;;;;;;5.20;99.90;5.70;100596.00;;;;344639;28;82325;-94
2022/12/28 00:35:15;;;;;;;;;;;5.10;99.90;5.70;100592.00;;;;345637;28;89244;-93
2022/12/28 00:35:27;;;;;;;;;;;5.10;99.90;5.70;100591.00;;;;344867;28;82214;-94
2022/12/28 00:35:38;;;;;;;;;;;5.10;99.90;5.60;100595.00;;;;344167;28;87241;-94
2022/12/28 00:35:54;;;;;;;;;;;5.20;99.90;5.60;100595.00;;;;344820;28;82590;-94
2022/12/28 00:36:06;;;;;;;;;;;5.10;99.90;5.50;100594.00;;;;344543;28;88169;-93
2022/12/28 00:36:18;;;;;;;;;;;5.10;99.90;5.50;100588.00;;;;344780;28;83504;-94
2022/12/28 00:36:30;;;;;;;;;;;5.10;99.90;5.50;100590.00;;;;343081;28;90732;-93
2022/12/28 00:37:02;;;;;;;;;;;5.10;99.90;5.50;100600.00;;;;344874;28;82457;-94
2022/12/28 00:37:23;;;;;;;;;;;5.10;99.90;5.50;100600.00;;;;345769;28;88150;-93
2022/12/28 00:37:35;;;;;;;;;;;5.10;99.90;5.50;100590.00;;;;344861;28;83376;-93
2022/12/28 00:37:47;;;;;;;;;;;5.00;99.90;5.40;100592.00;;;;342850;28;90630;-94
2022/12/28 00:37:58;;;;;;;;;;;5.10;99.90;5.40;100588.00;;;;344459;28;83410;-94
2022/12/28 00:38:10;;;;;;;;;;;5.10;99.90;5.40;100592.00;;;;345523;28;90306;-94
2022/12/28 00:38:22;;;;;;;;;;;5.10;99.90;5.50;100596.00;;;;343443;28;83271;-93
2022/12/28 00:38:34;;;;;;;;;;;5.00;99.90;5.50;100593.00;;;;342890;28;90258;-94
2022/12/28 00:38:46;;;;;;;;;;;5.00;99.90;5.50;100592.00;;;;347279;28;83423;-94
2022/12/28 00:38:58;;;;;;;;;;;5.00;99.90;5.40;100595.00;;;;344601;28;86548;-94
2022/12/28 00:39:10;;;;;;;;;;;5.00;99.90;5.40;100583.00;;;;344877;28;82506;-93
2022/12/28 00:39:22;;;;;;;;;;;5.00;99.90;5.40;100599.00;;;;345720;28;88250;-93
2022/12/28 00:39:34;;;;;;;;;;;5.00;99.90;5.40;100593.00;;;;344889;28;82339;-93
2022/12/28 00:39:46;;;;;;;;;;;5.00;99.90;5.40;100589.00;;;;344062;28;92649;-94
2022/12/28 00:39:58;;;;;;;;;;;5.00;99.90;5.50;100591.00;;;;344580;28;83374;-94
2022/12/28 00:40:09;;;;;;;;;;;5.00;99.90;5.50;100598.00;;;;345425;28;91782;-94
2022/12/28 00:40:21;;;;;;;;;;;5.00;99.90;5.50;100591.00;;;;346163;28;83395;-94
2022/12/28 00:40:34;;;;;;;;;;;5.00;99.90;5.50;100594.00;;;;345798;28;88736;-94
2022/12/28 00:40:46;;;;;;;;;;;5.00;99.90;5.60;100588.00;;;;343192;28;82587;-93
2022/12/28 00:40:58;;;;;;;;;;;5.00;99.90;5.60;100592.00;;;;344325;28;89259;-94
2022/12/28 00:41:10;;;;;;;;;;;5.00;99.90;5.60;100594.00;;;;346086;28;82619;-94
2022/12/28 00:41:22;;;;;;;;;;;5.00;99.90;5.60;100593.00;;;;345733;28;86807;-94
2022/12/28 00:41:34;;;;;;;;;;;5.00;99.90;5.60;100598.00;;;;344071;28;83592;-94
2022/12/28 00:41:46;;;;;;;;;;;5.00;99.90;5.50;100597.00;;;;345728;28;90383;-93
2022/12/28 00:41:58;;;;;;;;;;;5.00;99.90;5.50;100595.00;;;;346356;28;82502;-93
2022/12/28 00:42:10;;;;;;;;;;;5.00;99.90;5.40;100599.00;;;;344030;28;89205;-94
2022/12/28 00:42:21;;;;;;;;;;;5.00;99.90;5.40;100598.00;;;;343476;28;83433;-93
2022/12/28 00:42:33;;;;;;;;;;;5.00;99.90;5.50;100593.00;;;;343128;28;88596;-94
2022/12/28 00:42:45;;;;;;;;;;;5.00;99.90;5.50;100592.00;;;;344264;28;82621;-94
2022/12/28 00:42:57;;;;;;;;;;;5.00;99.90;5.50;100592.00;;;;345923;28;88131;-93
2022/12/28 00:43:08;;;;;;;;;;;5.00;99.90;5.50;100596.00;;;;344783;28;83183;-94
2022/12/28 00:43:20;;;;;;;;;;;5.00;99.90;5.40;100598.00;;;;343962;28;87242;-94
2022/12/28 00:43:32;;;;;;;;;;;5.00;99.90;5.40;100595.00;;;;344803;28;83490;-93
2022/12/28 00:43:45;;;;;;;;;;;5.00;99.90;5.40;100596.00;;;;345534;28;91259;-94
2022/12/28 00:43:56;;;;;;;;;;;5.00;99.90;5.30;100590.00;;;;346246;28;82403;-94
2022/12/28 00:44:08;;;;;;;;;;;5.00;99.90;5.30;100598.00;;;;344402;28;88423;-94
2022/12/28 00:44:20;;;;;;;;;;;5.00;99.90;5.30;100595.00;;;;343447;28;82601;-93
2022/12/28 00:44:32;;;;;;;;;;;5.00;99.90;5.40;100591.00;;;;343071;28;88345;-93
2022/12/28 00:44:44;;;;;;;;;;;5.00;99.90;5.40;100595.00;;;;343472;28;82371;-94
2022/12/28 00:44:56;;;;;;;;;;;5.00;99.90;5.40;100596.00;;;;344523;28;87999;-94
2022/12/28 00:45:08;;;;;;;;;;;5.00;99.90;5.50;100591.00;;;;344947;28;82354;-94
2022/12/28 00:45:20;;;;;;;;;;;5.00;99.90;5.40;100594.00;;;;345267;28;91238;-94
2022/12/28 00:45:31;;;;;;;;;;;5.00;99.90;5.50;100597.00;;;;344790;28;82233;-94
2022/12/28 00:45:46;;;;;;;;;;;5.00;99.90;5.50;100593.00;;;;344120;28;90570;-94
2022/12/28 00:45:58;;;;;;;;;;;5.00;99.90;5.50;100593.00;;;;345958;28;83476;-93
2022/12/28 00:46:10;;;;;;;;;;;5.00;99.90;5.50;100594.00;;;;344411;28;88991;-94
2022/12/28 00:46:22;;;;;;;;;;;4.90;99.90;5.40;100598.00;;;;345900;28;82448;-94
2022/12/28 00:46:34;;;;;;;;;;;5.00;99.90;5.40;100600.00;;;;345139;28;88457;-94
2022/12/28 00:46:46;;;;;;;;;;;5.00;99.90;5.40;100590.00;;;;345770;28;82688;-94
2022/12/28 00:46:57;;;;;;;;;;;5.00;99.90;5.40;100589.00;;;;342928;28;90374;-93
2022/12/28 00:47:09;;;;;;;;;;;5.00;99.90;5.40;100588.00;;;;346220;28;83293;-94
2022/12/28 00:47:21;;;;;;;;;;;5.00;99.90;5.50;100580.00;;;;344350;28;86569;-92
2022/12/28 00:47:33;;;;;;;;;;;5.00;99.90;5.60;100588.00;;;;344750;28;82476;-93
2022/12/28 00:47:44;;;;;;;;;;;5.00;99.90;5.60;100594.00;;;;344350;28;90515;-94
2022/12/28 00:47:56;;;;;;;;;;;5.00;99.90;5.60;100594.00;;;;343626;28;82300;-94
2022/12/28 00:48:08;;;;;;;;;;;5.00;99.90;5.60;100579.00;;;;344345;28;89182;-93
2022/12/28 00:48:20;;;;;;;;;;;5.00;99.90;5.50;100588.00;;;;346167;28;83394;-94
2022/12/28 00:48:32;;;;;;;;;;;5.00;99.90;5.50;100594.00;;;;345873;28;87672;-94
2022/12/28 00:48:43;;;;;;;;;;;5.00;99.90;5.50;100582.00;;;;346242;28;83338;-94
2022/12/28 00:48:55;;;;;;;;;;;5.00;99.90;5.50;100592.00;;;;342842;28;90169;-94
2022/12/28 00:49:07;;;;;;;;;;;5.00;99.90;5.50;100590.00;;;;344728;28;82453;-94
2022/12/28 00:49:19;;;;;;;;;;;5.00;99.90;5.50;100588.00;;;;345419;28;90642;-94
2022/12/28 00:49:31;;;;;;;;;;;5.00;99.90;5.40;100595.00;;;;344679;28;82713;-94
2022/12/28 00:49:42;;;;;;;;;;;5.00;99.90;5.40;100591.00;;;;343022;28;89036;-94
2022/12/28 00:49:54;;;;;;;;;;;5.00;99.90;5.40;100589.00;;;;344900;28;83335;-94
2022/12/28 00:50:06;;;;;;;;;;;5.00;99.90;5.40;100593.00;;;;347123;28;86464;-94
2022/12/28 00:50:18;;;;;;;;;;;5.00;99.90;5.40;100593.00;;;;341837;28;82572;-94
2022/12/28 00:50:30;;;;;;;;;;;5.00;99.90;5.40;100591.00;;;;341735;28;88088;-94
2022/12/28 00:50:42;;;;;;;;;;;5.00;99.90;5.40;100592.00;;;;344845;28;83126;-94
2022/12/28 00:51:07;;;;;;;;;;;4.90;99.90;5.50;100593.00;;;;345478;28;89437;-94
2022/12/28 00:51:19;;;;;;;;;;;5.00;99.90;5.60;100588.00;;;;344898;28;82429;-93
2022/12/28 00:51:31;;;;;;;;;;;4.90;99.90;5.60;100573.00;;;;344399;28;88195;-93
2022/12/28 00:51:43;;;;;;;;;;;5.00;99.90;5.60;100587.00;;;;344831;28;83354;-94
2022/12/28 00:51:55;;;;;;;;;;;4.90;99.90;5.50;100577.00;;;;345554;28;91949;-94
2022/12/28 00:52:06;;;;;;;;;;;5.00;99.90;5.50;100586.00;;;;344515;28;82607;-93
2022/12/28 00:52:18;;;;;;;;;;;5.00;99.90;5.40;100583.00;;;;342928;28;88435;-93
2022/12/28 00:52:30;;;;;;;;;;;5.00;99.90;5.40;100577.00;;;;344701;28;83395;-94
2022/12/28 00:52:42;;;;;;;;;;;5.00;99.90;5.50;100576.00;;;;345975;28;87421;-92
2022/12/28 00:52:53;;;;;;;;;;;5.00;99.90;5.40;100578.00;;;;346931;28;82522;-93
2022/12/28 00:53:05;;;;;;;;;;;5.00;99.90;5.60;100582.00;;;;343952;28;88234;-93
2022/12/28 00:53:17;;;;;;;;;;;5.00;99.90;5.60;100580.00;;;;345317;28;83412;-93
2022/12/28 00:53:29;;;;;;;;;;;5.00;99.90;5.70;100575.00;;;;347410;27;90156;-93
2022/12/28 00:53:41;;;;;;;;;;;5.00;99.90;5.70;100580.00;;;;345343;28;82349;-93
2022/12/28 00:53:53;;;;;;;;;;;5.00;99.90;5.50;100577.00;;;;343382;28;87481;-93
2022/12/28 00:54:05;;;;;;;;;;;5.00;99.90;5.50;100579.00;;;;346129;28;82557;-93
2022/12/28 00:54:17;;;;;;;;;;;5.00;99.90;5.50;100586.00;;;;345887;28;89905;-91
2022/12/28 00:54:28;;;;;;;;;;;5.00;99.90;5.50;100571.00;;;;346269;28;82532;-92
2022/12/28 00:54:40;;;;;;;;;;;5.00;99.90;5.50;100581.00;;;;344830;28;89425;-93
2022/12/28 00:54:52;;;;;;;;;;;5.00;99.90;5.50;100577.00;;;;348406;28;82267;-90
2022/12/28 00:55:04;;;;;;;;;;;5.00;99.90;5.50;100570.00;;;;349223;28;88339;-91
2022/12/28 00:55:16;;;;;;;;;;;5.00;99.90;5.50;100583.00;;;;348160;28;82091;-93
2022/12/28 00:55:28;;;;;;;;;;;5.00;99.90;5.50;100577.00;;;;344964;28;87801;-92
2022/12/28 00:55:40;;;;;;;;;;;5.00;99.90;5.50;100581.00;;;;346605;28;82571;-91
2022/12/28 00:55:51;;;;;;;;;;;5.00;99.90;5.50;100580.00;;;;346104;28;91571;-89
2022/12/28 00:56:14;;;;;;;;;;;5.00;99.90;5.50;100573.00;;;;347771;28;82324;-91
2022/12/28 00:56:26;;;;;;;;;;;5.00;99.90;5.60;100569.00;;;;347231;28;86917;-91
2022/12/28 00:56:40;;;;;;;;;;;5.00;99.90;5.50;100589.00;;;;345138;28;82677;-88
2022/12/28 00:56:51;;;;;;;;;;;5.00;99.90;5.60;100582.00;;;;347327;28;88290;-91
2022/12/28 00:57:03;;;;;;;;;;;5.00;99.90;5.50;100577.00;;;;348437;28;82570;-91
2022/12/28 00:57:15;;;;;;;;;;;5.00;99.90;5.50;100588.00;;;;346186;28;88323;-89
2022/12/28 00:57:26;;;;;;;;;;;5.00;99.90;5.60;100576.00;;;;348000;28;82587;-90
2022/12/28 00:57:39;;;;;;;;;;;5.00;99.90;5.50;100574.00;;;;347674;28;87895;-92
2022/12/28 00:57:51;;;;;;;;;;;5.00;99.90;5.40;100572.00;;;;345280;28;82362;-94
2022/12/28 00:58:03;;;;;;;;;;;5.00;99.90;5.30;100583.00;;;;344416;28;87458;-93
2022/12/28 00:58:15;;;;;;;;;;;5.00;99.90;5.30;100575.00;;;;344890;28;82448;-95
2022/12/28 00:58:27;;;;;;;;;;;5.00;99.90;5.50;100572.00;;;;344170;28;89349;-94
2022/12/28 00:58:39;;;;;;;;;;;4.90;99.90;5.50;100581.00;;;;344791;28;83269;-94
2022/12/28 00:58:55;;;;;;;;;;;5.00;99.90;5.40;100582.00;;;;344122;28;90610;-94
2022/12/28 00:59:07;;;;;;;;;;;5.00;99.90;5.30;100579.00;;;;344370;28;83613;-94
2022/12/28 00:59:19;;;;;;;;;;;4.90;99.90;5.50;100572.00;;;;345866;28;86369;-94
2022/12/28 00:59:31;;;;;;;;;;;4.90;99.90;5.60;100579.00;;;;343060;28;83644;-95
2022/12/28 00:59:43;;;;;;;;;;;5.00;99.90;5.60;100571.00;;;;342858;28;89017;-94
2022/12/28 00:59:54;;;;;;;;;;;5.00;99.90;5.70;100576.00;;;;344924;28;83279;-94
2022/12/28 01:00:06;;;;;;;;;;;5.00;99.90;5.60;100566.00;;;;341537;28;89115;-94
2022/12/28 01:00:18;;;;;;;;;;;5.00;99.90;5.50;100569.00;;;;343249;28;82598;-94
2022/12/28 01:00:30;;;;;;;;;;;5.00;99.90;5.50;100577.00;;;;344213;28;90369;-93
2022/12/28 01:00:42;;;;;;;;;;;5.00;99.90;5.40;100573.00;;;;342043;28;82523;-94
2022/12/28 01:00:54;;;;;;;;;;;5.00;99.90;5.40;100571.00;;;;343092;28;88388;-94
2022/12/28 01:01:17;;;;;;;;;;;5.00;99.90;5.40;100571.00;;;;343483;28;83457;-95
2022/12/28 01:01:29;;;;;;;;;;;5.00;99.90;5.40;100576.00;;;;342626;28;89562;-94
2022/12/28 01:01:41;;;;;;;;;;;5.00;99.90;5.50;100573.00;;;;343410;28;83308;-94
2022/12/28 01:01:53;;;;;;;;;;;5.00;99.90;5.60;100571.00;;;;347209;28;88595;-94
2022/12/28 01:02:05;;;;;;;;;;;5.00;99.90;5.60;100578.00;;;;344877;28;82484;-94
2022/12/28 01:02:18;;;;;;;;;;;5.00;99.90;5.70;100575.00;;;;345489;28;91456;-94
2022/12/28 01:02:29;;;;;;;;;;;5.00;99.90;5.70;100577.00;;;;344609;28;83388;-94
2022/12/28 01:02:41;;;;;;;;;;;5.00;99.90;5.70;100571.00;;;;345729;28;89244;-94
2022/12/28 01:02:53;;;;;;;;;;;5.00;99.90;5.60;100567.00;;;;346173;28;83364;-93
2022/12/28 01:03:05;;;;;;;;;;;5.00;99.90;5.70;100564.00;;;;344387;28;90512;-93
2022/12/28 01:03:17;;;;;;;;;;;5.10;99.90;5.60;100571.00;;;;344592;28;82604;-93